Time;durP1;ratioP1;P1;durP2;ratioP2;P2;SDS_P1;SDS_P2;PMS_P1;PMS_P2;Temp;Humidity;BMP_temperature;BMP_pressure;BME280_temperature;BME280_humidity;BME280_pressure;Samples;Min_cycle;Max_cycle;Signal;HPM_P1;HPM_P2
2021/11/27 00:01:35;;;;;;;7.68;1.50;;;3.90;99.90;;;;;;5016291;28;20033;-56
2021/11/27 00:04:01;;;;;;;15.40;5.72;;;3.80;99.90;;;;;;5016474;28;20041;-57
2021/11/27 00:06:27;;;;;;;5.75;1.50;;;3.70;99.90;;;;;;5013431;28;20069;-59
2021/11/27 00:08:53;;;;;;;11.25;4.22;;;3.70;99.90;;;;;;5014604;28;20073;-56
2021/11/27 00:11:20;;;;;;;5.55;1.20;;;3.60;99.90;;;;;;5014895;28;20057;-55
2021/11/27 00:13:46;;;;;;;14.02;5.13;;;3.70;99.90;;;;;;5013984;28;20034;-57
2021/11/27 00:16:11;;;;;;;9.38;4.40;;;3.60;99.90;;;;;;5013262;28;20468;-55
2021/11/27 00:18:37;;;;;;;6.90;1.50;;;3.60;99.90;;;;;;5014961;28;20531;-57
2021/11/27 00:21:12;;;;;;;7.10;1.90;;;3.70;99.90;;;;;;5012335;28;20029;-57
2021/11/27 00:23:39;;;;;;;5.07;2.33;;;3.60;99.90;;;;;;5014350;28;20037;-58
2021/11/27 00:26:08;;;;;;;7.88;1.80;;;3.60;99.90;;;;;;5013451;28;20476;-57
2021/11/27 00:28:34;;;;;;;3.83;1.90;;;3.50;99.90;;;;;;5012816;28;20057;-55
2021/11/27 00:31:07;;;;;;;3.50;1.20;;;3.50;99.90;;;;;;5013312;28;20468;-57
2021/11/27 00:33:33;;;;;;;4.57;1.60;;;3.50;99.90;;;;;;5014262;28;20374;-54
2021/11/27 00:35:59;;;;;;;3.40;1.10;;;3.40;99.90;;;;;;5012937;28;20041;-55
2021/11/27 00:38:25;;;;;;;1.98;1.15;;;3.50;99.90;;;;;;5014085;28;20129;-55
2021/11/27 00:40:52;;;;;;;2.58;1.02;;;3.40;99.90;;;;;;5013103;28;20392;-56
2021/11/27 00:43:18;;;;;;;3.22;0.90;;;3.40;99.90;;;;;;5031305;28;20140;-58
2021/11/27 00:45:46;;;;;;;3.05;1.00;;;3.40;99.90;;;;;;5015941;28;20073;-58
2021/11/27 00:48:14;;;;;;;2.53;0.90;;;3.40;99.90;;;;;;5013743;28;20022;-58
2021/11/27 00:50:47;;;;;;;2.47;0.93;;;3.40;99.90;;;;;;5012276;28;20499;-57
2021/11/27 00:53:13;;;;;;;2.67;0.95;;;3.40;99.90;;;;;;5012258;28;20424;-53
2021/11/27 00:55:39;;;;;;;4.95;1.20;;;3.40;99.90;;;;;;5012791;28;20040;-57
2021/11/27 00:58:06;;;;;;;2.10;0.90;;;3.40;99.90;;;;;;5013320;28;20495;-56
2021/11/27 01:00:37;;;;;;;3.22;0.80;;;3.40;99.90;;;;;;5012444;28;20189;-55
2021/11/27 01:03:05;;;;;;;2.28;0.80;;;3.40;99.90;;;;;;5013982;28;20036;-57
2021/11/27 01:05:32;;;;;;;2.78;0.90;;;3.40;99.90;;;;;;5012458;28;20050;-55
2021/11/27 01:07:58;;;;;;;3.65;1.00;;;3.40;99.90;;;;;;5013358;28;20061;-56
2021/11/27 01:10:27;;;;;;;2.92;0.80;;;3.40;99.90;;;;;;5011176;28;20026;-58
2021/11/27 01:12:54;;;;;;;3.40;0.90;;;3.40;99.90;;;;;;5014317;28;20049;-54
2021/11/27 01:15:26;;;;;;;2.42;0.77;;;3.40;99.90;;;;;;5012487;28;20041;-55
2021/11/27 01:17:53;;;;;;;1.92;0.45;;;3.50;99.90;;;;;;5013326;28;20104;-55
2021/11/27 01:20:25;;;;;;;2.97;0.77;;;3.50;99.90;;;;;;5011957;28;20044;-57
2021/11/27 01:22:52;;;;;;;1.08;0.70;;;3.60;99.90;;;;;;5013285;28;20033;-58
2021/11/27 01:25:19;;;;;;;1.45;0.60;;;3.60;99.90;;;;;;5011840;28;20366;-56
2021/11/27 01:27:45;;;;;;;0.90;0.50;;;3.50;99.90;;;;;;5015929;28;20037;-55
2021/11/27 01:30:13;;;;;;;0.73;0.43;;;3.50;99.90;;;;;;5018873;28;20104;-53
2021/11/27 01:32:40;;;;;;;0.88;0.47;;;3.50;99.90;;;;;;5019416;28;20042;-54
2021/11/27 01:35:07;;;;;;;0.57;0.40;;;3.50;99.90;;;;;;5012417;28;20045;-57
2021/11/27 01:37:34;;;;;;;1.83;0.60;;;3.50;99.90;;;;;;5012332;28;20369;-58
2021/11/27 01:40:01;;;;;;;1.58;0.60;;;3.60;99.90;;;;;;5012674;28;20045;-54
2021/11/27 01:42:27;;;;;;;2.60;0.60;;;3.60;99.90;;;;;;5011519;28;20077;-54
2021/11/27 01:44:53;;;;;;;1.63;0.52;;;3.50;99.90;;;;;;5012436;28;20420;-54
2021/11/27 01:47:19;;;;;;;1.42;0.55;;;3.50;99.90;;;;;;4995149;28;20038;-56
2021/11/27 01:49:44;;;;;;;0.28;0.28;;;3.50;99.90;;;;;;5004453;28;20103;-57
2021/11/27 01:52:10;;;;;;;1.05;0.47;;;3.40;99.90;;;;;;5017291;28;20064;-52
2021/11/27 01:54:37;;;;;;;1.23;0.50;;;3.20;99.90;;;;;;5012353;28;20501;-54
2021/11/27 01:57:04;;;;;;;0.93;0.50;;;3.20;99.90;;;;;;5011733;28;20037;-56
2021/11/27 01:59:33;;;;;;;1.75;0.70;;;3.20;99.90;;;;;;5012328;28;20049;-57
2021/11/27 02:02:00;;;;;;;0.55;0.40;;;3.20;99.90;;;;;;5011156;28;20041;-57
2021/11/27 02:04:27;;;;;;;0.90;0.60;;;3.20;99.90;;;;;;5011876;28;20030;-54
2021/11/27 02:06:53;;;;;;;2.78;0.55;;;3.10;99.90;;;;;;5011382;28;20038;-55
2021/11/27 02:09:26;;;;;;;1.58;0.43;;;3.00;99.90;;;;;;5011957;28;20032;-56
2021/11/27 02:11:54;;;;;;;1.30;0.70;;;2.90;99.90;;;;;;5020388;28;20072;-57
2021/11/27 02:14:20;;;;;;;1.13;0.70;;;2.80;99.90;;;;;;5028741;28;20480;-57
2021/11/27 02:16:46;;;;;;;0.60;0.60;;;2.90;99.90;;;;;;5011392;28;20037;-54
2021/11/27 02:19:13;;;;;;;1.42;0.70;;;2.80;99.90;;;;;;5012125;28;20038;-58
2021/11/27 02:21:40;;;;;;;1.75;0.75;;;2.80;99.90;;;;;;5011402;28;20080;-56
2021/11/27 02:24:06;;;;;;;1.55;0.80;;;2.80;99.90;;;;;;5011785;28;20499;-56
2021/11/27 02:26:34;;;;;;;2.00;0.77;;;2.90;99.90;;;;;;5011340;28;20088;-54
2021/11/27 02:29:10;;;;;;;1.15;0.93;;;2.90;99.90;;;;;;5012010;28;20033;-53
2021/11/27 02:31:37;;;;;;;2.33;1.10;;;2.90;99.90;;;;;;5011443;28;20061;-55
2021/11/27 02:34:05;;;;;;;1.98;1.17;;;2.90;99.90;;;;;;5012178;28;20610;-55
2021/11/27 02:36:32;;;;;;;3.35;1.10;;;2.80;99.90;;;;;;5008993;28;20108;-55
2021/11/27 02:38:59;;;;;;;2.45;1.30;;;2.80;99.90;;;;;;5011949;28;20034;-56
2021/11/27 02:41:25;;;;;;;1.45;1.33;;;2.80;99.90;;;;;;5010928;28;20072;-56
2021/11/27 02:43:51;;;;;;;2.33;1.40;;;2.80;99.90;;;;;;5011688;28;20062;-55
2021/11/27 02:46:17;;;;;;;1.40;1.20;;;2.80;99.90;;;;;;5014659;28;20041;-55
2021/11/27 02:48:43;;;;;;;2.03;1.52;;;2.70;99.90;;;;;;5024077;28;20030;-58
2021/11/27 02:51:09;;;;;;;1.58;1.48;;;2.60;99.90;;;;;;5011138;28;20464;-56
2021/11/27 02:53:35;;;;;;;2.03;1.83;;;2.60;99.90;;;;;;5011992;28;20514;-57
2021/11/27 02:56:03;;;;;;;1.40;1.30;;;2.60;99.90;;;;;;5011944;28;20061;-57
2021/11/27 02:58:29;;;;;;;1.35;1.25;;;2.50;99.90;;;;;;5010991;28;20129;-56
2021/11/27 03:00:57;;;;;;;1.50;1.40;;;2.50;99.90;;;;;;5011535;28;20539;-58
2021/11/27 03:03:24;;;;;;;1.65;1.40;;;2.40;99.90;;;;;;5011016;28;20916;-54
2021/11/27 03:05:50;;;;;;;1.90;1.50;;;2.40;99.90;;;;;;5011285;28;20022;-56
2021/11/27 03:08:17;;;;;;;1.50;1.33;;;2.40;99.90;;;;;;5010688;28;20049;-53
2021/11/27 03:10:43;;;;;;;1.90;1.58;;;2.40;99.90;;;;;;5011805;28;20559;-57
2021/11/27 03:13:09;;;;;;;1.83;1.70;;;2.30;99.90;;;;;;5010693;28;20093;-54
2021/11/27 03:15:41;;;;;;;2.05;1.70;;;2.30;99.90;;;;;;5012146;28;20105;-55
2021/11/27 03:18:10;;;;;;;2.05;1.85;;;2.30;99.90;;;;;;5002862;28;20117;-53
2021/11/27 03:20:36;;;;;;;2.47;2.17;;;2.30;99.90;;;;;;5014585;28;20026;-57
2021/11/27 03:23:02;;;;;;;2.60;2.38;;;2.30;99.90;;;;;;5014560;28;20480;-58
2021/11/27 03:25:28;;;;;;;3.20;2.50;;;2.40;99.90;;;;;;5013911;28;20061;-58
2021/11/27 03:27:54;;;;;;;2.53;2.33;;;2.30;99.90;;;;;;5014455;28;20030;-53
2021/11/27 03:30:20;;;;;;;4.60;3.30;;;2.30;99.90;;;;;;5015392;28;20033;-58
2021/11/27 03:32:47;;;;;;;3.97;2.97;;;2.30;99.90;;;;;;5020762;28;20101;-59
2021/11/27 03:35:13;;;;;;;3.95;3.35;;;2.30;99.90;;;;;;5015175;28;20105;-51
2021/11/27 03:37:39;;;;;;;4.20;3.80;;;2.30;99.90;;;;;;5014121;28;20048;-55
2021/11/27 03:40:08;;;;;;;5.22;4.00;;;2.30;99.90;;;;;;5014575;28;20376;-55
2021/11/27 03:42:34;;;;;;;4.97;4.13;;;2.40;99.90;;;;;;5014693;28;20026;-56
2021/11/27 03:45:00;;;;;;;7.72;4.60;;;2.40;99.90;;;;;;5001611;28;20099;-54
2021/11/27 03:47:26;;;;;;;6.70;5.20;;;2.40;99.90;;;;;;5012061;28;20040;-57
2021/11/27 03:49:53;;;;;;;6.80;4.78;;;2.40;99.90;;;;;;5014280;28;20022;-58
2021/11/27 03:52:20;;;;;;;7.20;4.50;;;2.50;99.90;;;;;;5028090;28;20044;-57
2021/11/27 03:54:48;;;;;;;6.53;4.72;;;2.50;99.90;;;;;;5019756;28;20091;-57
2021/11/27 03:57:14;;;;;;;6.75;4.90;;;2.50;99.90;;;;;;5013935;28;20050;-54
2021/11/27 03:59:40;;;;;;;7.85;5.00;;;2.50;99.90;;;;;;5014821;28;20060;-54
2021/11/27 04:02:06;;;;;;;5.53;4.32;;;2.50;99.90;;;;;;5013519;28;20030;-55
2021/11/27 04:04:35;;;;;;;6.85;4.43;;;2.50;99.90;;;;;;5015715;28;20037;-53
2021/11/27 04:07:01;;;;;;;8.02;4.70;;;2.40;99.90;;;;;;5013792;28;20069;-55
2021/11/27 04:09:27;;;;;;;5.18;3.97;;;2.40;99.90;;;;;;5014230;28;20030;-55
2021/11/27 04:11:53;;;;;;;5.80;4.22;;;2.50;99.90;;;;;;5014062;28;20038;-54
2021/11/27 04:14:19;;;;;;;5.50;4.10;;;2.40;99.90;;;;;;5014409;28;20025;-52
2021/11/27 04:16:45;;;;;;;4.65;3.70;;;2.40;99.90;;;;;;5013740;28;20492;-58
2021/11/27 04:19:10;;;;;;;5.30;4.07;;;2.50;99.90;;;;;;5014353;28;20029;-55
2021/11/27 04:21:36;;;;;;;5.75;4.00;;;2.40;99.90;;;;;;5013956;28;20044;-54
2021/11/27 04:24:03;;;;;;;5.35;4.18;;;2.40;99.90;;;;;;5012216;28;20042;-57
2021/11/27 04:26:29;;;;;;;5.07;4.22;;;2.40;99.90;;;;;;5013709;28;20034;-54
2021/11/27 04:28:55;;;;;;;5.35;4.00;;;2.40;99.90;;;;;;5012827;28;20032;-55
2021/11/27 04:31:22;;;;;;;4.45;3.80;;;2.40;99.90;;;;;;5014253;28;20025;-56
2021/11/27 04:33:50;;;;;;;6.63;4.47;;;2.40;99.90;;;;;;5012866;28;20453;-56
2021/11/27 04:36:17;;;;;;;5.20;4.35;;;2.50;99.90;;;;;;5013803;28;20101;-57
2021/11/27 04:38:43;;;;;;;5.68;4.65;;;2.60;99.90;;;;;;5019903;28;20114;-57
2021/11/27 04:41:09;;;;;;;5.90;4.63;;;2.50;99.90;;;;;;5014120;28;20096;-55
2021/11/27 04:43:34;;;;;;;6.43;4.95;;;2.50;99.90;;;;;;5012844;28;20034;-55
2021/11/27 04:46:01;;;;;;;6.20;4.82;;;2.50;99.90;;;;;;5015084;28;20041;-53
2021/11/27 04:48:26;;;;;;;5.72;4.90;;;2.60;99.90;;;;;;5029291;28;20030;-55
2021/11/27 04:50:52;;;;;;;8.95;5.57;;;2.50;99.90;;;;;;5014133;28;20036;-56
2021/11/27 04:53:19;;;;;;;7.20;5.53;;;2.60;99.90;;;;;;5012722;28;20105;-55
2021/11/27 04:55:44;;;;;;;8.20;5.82;;;2.60;99.90;;;;;;5013551;28;20041;-56
2021/11/27 04:58:10;;;;;;;8.13;5.78;;;2.50;99.90;;;;;;5012538;28;20026;-56
2021/11/27 05:00:40;;;;;;;8.65;6.28;;;2.60;99.90;;;;;;5013618;28;20152;-57
2021/11/27 05:03:05;;;;;;;8.52;6.18;;;2.50;99.90;;;;;;5019160;28;20029;-57
2021/11/27 05:05:32;;;;;;;7.95;5.57;;;2.50;99.90;;;;;;5013273;28;20033;-56
2021/11/27 05:07:58;;;;;;;9.55;5.68;;;2.60;99.90;;;;;;5012706;28;20049;-53
2021/11/27 05:10:25;;;;;;;8.15;5.78;;;2.50;99.90;;;;;;5013488;28;20104;-58
2021/11/27 05:12:51;;;;;;;10.57;7.00;;;2.50;99.90;;;;;;5011216;28;20034;-54
2021/11/27 05:15:17;;;;;;;9.55;6.78;;;2.50;99.90;;;;;;5013327;28;20037;-55
2021/11/27 05:17:43;;;;;;;9.02;6.32;;;2.50;99.90;;;;;;5013039;28;20030;-53
2021/11/27 05:20:09;;;;;;;8.52;6.43;;;2.50;99.90;;;;;;5013178;28;20038;-55
2021/11/27 05:22:35;;;;;;;7.28;5.95;;;2.50;99.90;;;;;;5013018;28;20038;-56
2021/11/27 05:25:01;;;;;;;9.60;5.75;;;2.50;99.90;;;;;;5012971;28;20041;-55
2021/11/27 05:27:28;;;;;;;9.65;5.70;;;2.50;99.90;;;;;;5012127;28;20029;-54
2021/11/27 05:29:54;;;;;;;9.55;5.40;;;2.40;99.90;;;;;;5013252;28;20109;-56
2021/11/27 05:32:38;;;;;;;7.28;4.95;;;2.50;99.90;;;;;;5012852;28;20026;-55
2021/11/27 05:35:09;;;;;;;7.57;5.38;;;2.40;99.90;;;;;;5012762;28;20546;-55
2021/11/27 05:37:36;;;;;;;9.75;4.90;;;2.50;99.90;;;;;;5012145;28;20108;-53
2021/11/27 05:40:05;;;;;;;8.77;5.03;;;2.50;99.90;;;;;;5012368;28;20041;-56
2021/11/27 05:42:31;;;;;;;7.65;4.97;;;2.50;99.90;;;;;;5012291;28;20034;-56
2021/11/27 05:44:57;;;;;;;10.18;4.90;;;2.50;99.90;;;;;;5012301;28;20112;-55
2021/11/27 05:47:23;;;;;;;9.48;4.28;;;2.50;99.90;;;;;;5011030;28;20141;-56
2021/11/27 05:49:50;;;;;;;5.03;4.05;;;2.40;99.90;;;;;;5009807;28;20037;-54
2021/11/27 05:52:16;;;;;;;7.38;4.15;;;2.50;99.90;;;;;;5012722;28;20046;-55
2021/11/27 05:54:42;;;;;;;6.70;4.20;;;2.40;99.90;;;;;;5011782;28;20030;-53
2021/11/27 05:57:08;;;;;;;7.72;3.88;;;2.40;99.90;;;;;;5012479;28;20033;-55
2021/11/27 05:59:34;;;;;;;8.10;4.25;;;2.40;99.90;;;;;;5011717;28;20050;-52
2021/11/27 06:01:59;;;;;;;10.10;3.70;;;2.40;99.90;;;;;;5012455;28;20033;-54
2021/11/27 06:04:25;;;;;;;9.85;4.20;;;2.40;99.90;;;;;;5010605;28;20033;-57
2021/11/27 06:06:51;;;;;;;7.60;3.90;;;2.40;99.90;;;;;;5028368;28;20069;-54
2021/11/27 06:09:17;;;;;;;9.70;4.07;;;2.40;99.90;;;;;;5011813;28;20544;-54
2021/11/27 06:11:44;;;;;;;7.78;3.95;;;2.40;99.90;;;;;;5012299;28;20113;-53
2021/11/27 06:14:09;;;;;;;7.97;4.22;;;2.30;99.90;;;;;;5010681;28;20042;-53
2021/11/27 06:16:35;;;;;;;7.82;3.45;;;2.30;99.90;;;;;;5025085;28;20468;-55
2021/11/27 06:19:01;;;;;;;8.90;3.83;;;2.40;99.90;;;;;;5011573;28;20092;-56
2021/11/27 06:21:27;;;;;;;8.27;3.63;;;2.40;99.90;;;;;;5011754;28;20030;-55
2021/11/27 06:23:56;;;;;;;5.95;3.22;;;2.50;99.90;;;;;;5011298;28;20459;-55
2021/11/27 06:26:22;;;;;;;5.93;3.20;;;2.50;99.90;;;;;;5025501;28;20100;-58
2021/11/27 06:28:48;;;;;;;9.65;3.30;;;2.50;99.90;;;;;;5016485;28;20026;-53
2021/11/27 06:31:15;;;;;;;8.00;3.08;;;2.50;99.90;;;;;;5012009;28;20037;-56
2021/11/27 06:33:41;;;;;;;7.13;3.08;;;2.60;99.90;;;;;;5010330;28;20042;-56
2021/11/27 06:36:07;;;;;;;6.85;3.20;;;2.50;99.90;;;;;;5011691;28;20120;-54
2021/11/27 06:38:33;;;;;;;5.22;3.47;;;2.60;99.90;;;;;;5011689;28;20025;-55
2021/11/27 06:40:59;;;;;;;7.85;4.72;;;2.60;99.90;;;;;;5011901;28;20383;-56
2021/11/27 06:43:25;;;;;;;11.48;6.13;;;2.70;99.90;;;;;;5010535;28;20034;-56
2021/11/27 06:45:51;;;;;;;8.90;6.97;;;2.70;99.90;;;;;;5011901;28;20041;-56
2021/11/27 06:48:17;;;;;;;12.70;7.05;;;2.80;99.90;;;;;;5011079;28;20034;-54
2021/11/27 06:50:43;;;;;;;13.60;7.70;;;2.80;99.90;;;;;;5011841;28;20030;-54
2021/11/27 06:53:08;;;;;;;11.23;7.72;;;2.80;99.90;;;;;;5011785;28;20041;-53
2021/11/27 06:55:34;;;;;;;10.30;7.30;;;2.80;99.90;;;;;;5009034;28;20395;-54
2021/11/27 06:58:00;;;;;;;9.52;7.10;;;2.80;99.90;;;;;;5011582;28;20105;-57
2021/11/27 07:00:26;;;;;;;10.30;7.40;;;2.80;99.90;;;;;;5010861;28;20049;-54
2021/11/27 07:02:52;;;;;;;10.68;5.95;;;2.80;99.90;;;;;;5010873;28;20032;-54
2021/11/27 07:05:18;;;;;;;7.82;5.72;;;2.80;99.90;;;;;;5010894;28;20092;-55
2021/11/27 07:07:44;;;;;;;7.30;5.03;;;2.80;99.90;;;;;;4998970;28;20454;-55
2021/11/27 07:10:10;;;;;;;9.70;5.20;;;2.80;99.90;;;;;;5010539;28;20160;-55
2021/11/27 07:12:35;;;;;;;7.05;4.57;;;2.80;99.90;;;;;;5011714;28;20030;-54
2021/11/27 07:15:02;;;;;;;9.05;4.70;;;2.80;99.90;;;;;;5010640;28;20036;-54
2021/11/27 07:17:30;;;;;;;7.60;4.68;;;2.80;99.90;;;;;;5011434;28;20025;-57
2021/11/27 07:19:57;;;;;;;6.00;3.88;;;2.90;99.90;;;;;;5009874;28;20022;-55
2021/11/27 07:22:23;;;;;;;5.82;3.78;;;2.90;99.90;;;;;;5011611;28;20037;-56
2021/11/27 07:24:49;;;;;;;5.85;3.83;;;2.90;99.90;;;;;;5010434;28;20062;-53
2021/11/27 07:27:15;;;;;;;8.48;4.28;;;2.90;99.90;;;;;;5012061;28;20061;-55
2021/11/27 07:29:41;;;;;;;6.78;3.80;;;3.00;99.90;;;;;;5010338;28;20069;-58
2021/11/27 07:32:09;;;;;;;5.13;3.20;;;3.10;99.90;;;;;;5010063;28;20037;-56
2021/11/27 07:34:35;;;;;;;9.50;3.80;;;3.10;99.90;;;;;;5010216;28;20044;-54
2021/11/27 07:37:01;;;;;;;7.90;3.72;;;3.10;99.90;;;;;;5009925;28;20132;-57
2021/11/27 07:39:26;;;;;;;6.45;3.42;;;3.20;99.90;;;;;;5018935;28;20101;-54
2021/11/27 07:41:52;;;;;;;6.82;3.38;;;3.10;99.90;;;;;;5011232;28;20108;-52
2021/11/27 07:44:18;;;;;;;5.15;2.83;;;3.10;99.90;;;;;;5009154;28;20048;-55
2021/11/27 07:46:47;;;;;;;6.45;3.45;;;3.20;99.90;;;;;;4997329;28;20068;-56
2021/11/27 07:49:14;;;;;;;8.45;3.42;;;3.20;99.90;;;;;;5010488;28;20025;-56
2021/11/27 07:51:39;;;;;;;6.60;3.05;;;3.20;99.90;;;;;;5010611;28;20046;-57
2021/11/27 07:54:05;;;;;;;5.00;2.40;;;3.20;99.90;;;;;;5010898;28;20033;-55
2021/11/27 07:56:31;;;;;;;6.20;2.70;;;3.20;99.90;;;;;;5031217;28;20026;-56
2021/11/27 07:58:57;;;;;;;7.70;3.00;;;3.20;99.90;;;;;;5025163;28;20725;-57
2021/11/27 08:01:23;;;;;;;6.03;2.33;;;3.30;99.90;;;;;;5014549;28;20039;-57
2021/11/27 08:03:48;;;;;;;4.20;1.88;;;3.30;99.90;;;;;;5030613;28;20491;-58
2021/11/27 08:06:14;;;;;;;7.10;2.38;;;3.20;99.90;;;;;;5015044;28;20111;-56
2021/11/27 08:08:40;;;;;;;6.35;2.35;;;3.30;99.90;;;;;;5012314;28;20400;-56
2021/11/27 08:11:06;;;;;;;7.82;2.38;;;3.30;99.90;;;;;;5014210;28;20404;-56
2021/11/27 08:13:32;;;;;;;3.38;1.40;;;3.30;99.90;;;;;;5014841;28;20026;-55
2021/11/27 08:15:58;;;;;;;6.80;1.52;;;3.30;99.90;;;;;;5014163;28;20065;-55
2021/11/27 08:18:26;;;;;;;6.88;1.80;;;3.30;99.90;;;;;;5012534;28;20022;-58
2021/11/27 08:20:52;;;;;;;7.28;1.95;;;3.30;99.90;;;;;;5001607;28;20117;-59
2021/11/27 08:23:18;;;;;;;5.60;1.65;;;3.30;99.90;;;;;;5014568;28;20121;-55
2021/11/27 08:25:45;;;;;;;3.65;1.52;;;3.30;99.90;;;;;;5013912;28;20056;-57
2021/11/27 08:28:12;;;;;;;7.72;1.67;;;3.40;99.90;;;;;;5014749;28;20025;-53
2021/11/27 08:30:37;;;;;;;8.35;1.50;;;3.30;99.90;;;;;;5013778;28;20095;-58
2021/11/27 08:33:04;;;;;;;3.58;1.30;;;3.30;99.90;;;;;;5013900;28;20527;-58
2021/11/27 08:35:29;;;;;;;9.20;1.30;;;3.40;99.90;;;;;;5013062;28;20033;-57
2021/11/27 08:37:55;;;;;;;6.55;1.77;;;3.50;99.90;;;;;;5011992;28;20404;-55
2021/11/27 08:40:21;;;;;;;6.85;1.40;;;3.70;99.90;;;;;;5013334;28;20105;-57
2021/11/27 08:42:46;;;;;;;10.43;2.55;;;3.80;99.90;;;;;;5013733;28;20064;-57
2021/11/27 08:45:13;;;;;;;6.88;1.50;;;4.00;99.90;;;;;;5013490;28;20092;-57
2021/11/27 08:47:39;;;;;;;4.88;1.48;;;4.20;99.90;;;;;;5013810;28;20065;-58
2021/11/27 08:50:07;;;;;;;4.88;1.48;;;4.30;99.90;;;;;;5012400;28;20412;-56
2021/11/27 08:52:32;;;;;;;5.32;1.65;;;4.40;99.90;;;;;;5013775;28;20026;-58
2021/11/27 08:54:58;;;;;;;6.78;1.42;;;4.50;99.90;;;;;;5012961;28;20052;-57
2021/11/27 08:57:24;;;;;;;8.48;1.60;;;4.40;99.90;;;;;;5028535;28;20484;-57
2021/11/27 08:59:51;;;;;;;6.80;1.20;;;4.30;99.90;;;;;;5012953;28;20053;-59
2021/11/27 09:02:17;;;;;;;5.72;1.40;;;4.30;99.90;;;;;;5013975;28;20026;-59
2021/11/27 09:04:42;;;;;;;7.93;1.33;;;4.10;99.90;;;;;;5011994;28;20066;-59
2021/11/27 09:07:08;;;;;;;5.25;1.48;;;4.00;99.90;;;;;;5013129;28;20057;-59
2021/11/27 09:09:34;;;;;;;4.45;1.35;;;3.90;99.90;;;;;;5019089;28;20033;-60
2021/11/27 09:12:01;;;;;;;6.00;1.35;;;3.90;99.90;;;;;;5028944;28;20534;-60
2021/11/27 09:14:27;;;;;;;6.45;1.50;;;3.90;99.90;;;;;;5011533;28;20058;-59
2021/11/27 09:16:53;;;;;;;5.80;1.75;;;3.80;99.90;;;;;;5012743;28;20400;-62
2021/11/27 09:19:20;;;;;;;7.03;1.50;;;3.80;99.90;;;;;;5012241;28;20049;-61
2021/11/27 09:21:45;;;;;;;4.22;1.52;;;3.80;99.90;;;;;;5012675;28;20523;-59
2021/11/27 09:24:12;;;;;;;11.23;1.80;;;3.80;99.90;;;;;;5011617;28;20041;-59
2021/11/27 09:26:38;;;;;;;8.02;2.05;;;3.80;99.90;;;;;;5012026;28;20044;-60
2021/11/27 09:29:07;;;;;;;11.00;3.10;;;3.90;99.90;;;;;;5013060;28;20415;-59
2021/11/27 09:31:38;;;;;;;12.35;3.35;;;3.90;99.90;;;;;;5012454;28;20026;-61
2021/11/27 09:34:04;;;;;;;10.23;3.50;;;4.10;99.90;;;;;;5012673;28;20040;-60
2021/11/27 09:36:30;;;;;;;29.15;9.15;;;4.00;99.90;;;;;;5010255;28;20030;-59
2021/11/27 09:38:56;;;;;;;53.05;16.13;;;4.10;99.90;;;;;;5011287;28;20118;-62
2021/11/27 09:41:27;;;;;;;24.88;7.78;;;4.10;99.90;;;;;;5012363;28;20112;-61
2021/11/27 09:43:59;;;;;;;15.27;4.85;;;4.10;99.90;;;;;;5011668;28;20026;-60
2021/11/27 09:46:27;;;;;;;21.98;6.65;;;4.20;99.90;;;;;;5018285;28;20080;-58
2021/11/27 09:48:59;;;;;;;17.15;4.03;;;4.30;99.90;;;;;;5019938;28;20087;-60
2021/11/27 09:51:27;;;;;;;26.98;9.23;;;4.30;99.90;;;;;;5020278;28;20029;-60
2021/11/27 09:53:54;;;;;;;41.47;15.10;;;4.40;99.90;;;;;;5017025;28;20026;-60
2021/11/27 09:56:22;;;;;;;10.38;3.80;;;4.50;99.90;;;;;;5017258;28;20392;-58
2021/11/27 09:58:48;;;;;;;15.80;5.22;;;4.50;99.90;;;;;;5019230;28;20029;-61
2021/11/27 10:01:15;;;;;;;13.25;3.67;;;4.50;99.90;;;;;;5031355;28;20558;-61
2021/11/27 10:03:50;;;;;;;11.98;3.08;;;4.60;99.90;;;;;;5032241;28;20025;-61
2021/11/27 10:06:17;;;;;;;11.65;3.30;;;4.70;99.90;;;;;;5030461;28;20122;-60
2021/11/27 10:08:43;;;;;;;9.40;2.55;;;4.80;99.90;;;;;;5012868;28;20324;-61
2021/11/27 10:11:09;;;;;;;10.15;2.80;;;4.80;99.90;;;;;;5010562;28;20120;-59
2021/11/27 10:13:35;;;;;;;12.60;2.00;;;4.80;99.90;;;;;;5011805;28;20421;-60
2021/11/27 10:16:01;;;;;;;13.73;2.97;;;4.90;99.90;;;;;;5023083;28;20383;-61
2021/11/27 10:18:27;;;;;;;10.95;2.85;;;5.00;99.90;;;;;;5028239;28;20033;-59
2021/11/27 10:21:15;;;;;;;7.57;2.03;;;5.10;99.90;;;;;;5011790;28;20106;-60
2021/11/27 10:23:42;;;;;;;8.45;1.98;;;5.20;99.90;;;;;;5009997;28;20034;-59
2021/11/27 10:26:08;;;;;;;10.82;2.15;;;5.30;99.90;;;;;;5028766;28;20642;-60
2021/11/27 10:28:34;;;;;;;6.18;1.40;;;5.30;99.90;;;;;;5030952;28;20029;-60
2021/11/27 10:31:03;;;;;;;9.30;1.85;;;5.40;99.90;;;;;;5028820;28;20036;-61
2021/11/27 10:33:36;;;;;;;10.57;1.73;;;5.40;99.90;;;;;;5013702;28;20030;-61
2021/11/27 10:36:07;;;;;;;9.02;1.92;;;5.40;99.90;;;;;;5022593;28;20143;-59
2021/11/27 10:38:35;;;;;;;7.18;1.33;;;5.40;99.90;;;;;;5013215;28;20034;-62
2021/11/27 10:41:02;;;;;;;7.60;2.05;;;5.50;99.90;;;;;;5005847;28;20041;-62
2021/11/27 10:43:28;;;;;;;9.45;1.70;;;5.50;99.90;;;;;;5029318;28;20041;-60
2021/11/27 10:45:54;;;;;;;14.90;3.10;;;5.50;99.90;;;;;;5030929;28;20041;-60
2021/11/27 10:48:24;;;;;;;9.98;2.30;;;5.60;99.90;;;;;;5023378;28;20029;-62
2021/11/27 10:50:59;;;;;;;13.68;2.38;;;5.60;99.90;;;;;;5026803;28;20025;-60
2021/11/27 10:53:35;;;;;;;9.32;1.98;;;5.60;99.90;;;;;;5004912;28;20061;-60
2021/11/27 10:56:05;;;;;;;15.63;2.92;;;5.60;99.90;;;;;;5013041;28;20113;-60
2021/11/27 10:58:31;;;;;;;14.65;3.22;;;5.50;99.90;;;;;;5012352;28;20029;-61
2021/11/27 11:01:00;;;;;;;8.88;1.30;;;5.40;99.90;;;;;;5016642;28;20090;-61
2021/11/27 11:03:34;;;;;;;12.38;1.90;;;5.40;99.90;;;;;;5029894;28;20033;-60
2021/11/27 11:06:01;;;;;;;;;;;5.40;99.90;;;;;;5031060;28;20029;-61
2021/11/27 11:08:33;;;;;;;23.00;3.30;;;5.40;99.90;;;;;;5019027;28;19905;-60
2021/11/27 11:11:01;;;;;;;18.35;5.10;;;5.50;99.90;;;;;;5012878;28;20128;-61
2021/11/27 11:13:32;;;;;;;11.98;3.10;;;5.40;99.90;;;;;;5019087;28;20129;-60
2021/11/27 11:16:07;;;;;;;20.48;7.72;;;5.40;99.90;;;;;;5023950;28;20124;-61
2021/11/27 11:18:34;;;;;;;12.52;3.03;;;5.30;99.90;;;;;;5029071;28;20037;-60
2021/11/27 11:21:06;;;;;;;13.68;2.42;;;5.30;99.90;;;;;;5011076;28;20388;-60
2021/11/27 11:23:35;;;;;;;9.40;2.50;;;5.40;99.90;;;;;;5014007;28;20030;-61
2021/11/27 11:26:20;;;;;;;20.27;3.80;;;5.40;99.90;;;;;;5011488;28;20146;-60
2021/11/27 11:28:54;;;;;;;17.77;2.88;;;5.40;99.90;;;;;;5013735;28;20044;-61
2021/11/27 11:31:36;;;;;;;16.02;3.35;;;5.40;99.90;;;;;;5030740;28;20033;-60
2021/11/27 11:34:02;;;;;;;23.90;6.00;;;5.40;99.90;;;;;;5018033;28;20037;-60
2021/11/27 11:36:29;;;;;;;17.42;3.38;;;5.40;99.90;;;;;;5011998;28;20034;-58
2021/11/27 11:38:58;;;;;;;15.48;3.25;;;5.40;99.90;;;;;;5018667;28;20079;-60
2021/11/27 11:41:26;;;;;;;14.52;2.40;;;5.40;99.90;;;;;;5025602;28;20086;-61
2021/11/27 11:43:53;;;;;;;12.88;2.80;;;5.40;99.90;;;;;;5032402;28;20025;-61
2021/11/27 11:46:19;;;;;;;17.08;3.17;;;5.30;99.90;;;;;;5034261;28;20061;-60
2021/11/27 11:49:12;;;;;;;14.43;2.20;;;5.40;99.90;;;;;;5020136;28;20022;-58
2021/11/27 11:51:45;;;;;;;13.02;2.72;;;5.40;99.90;;;;;;4996412;28;20382;-60
2021/11/27 11:54:12;;;;;;;10.30;2.33;;;5.30;99.90;;;;;;5000118;28;20061;-61
2021/11/27 11:56:41;;;;;;;8.90;2.05;;;5.40;99.90;;;;;;5022286;28;20481;-61
2021/11/27 11:59:28;;;;;;;23.42;2.35;;;5.30;99.90;;;;;;5029485;28;20029;-61
2021/11/27 12:02:23;;;;;;;14.80;2.85;;;5.30;99.90;;;;;;5018342;28;20029;-61
2021/11/27 12:05:00;;;;;;;9.35;1.98;;;5.30;99.90;;;;;;5027192;28;20368;-59
2021/11/27 12:07:44;;;;;;;11.25;2.05;;;5.30;99.90;;;;;;5033631;28;20095;-60
2021/11/27 12:10:26;;;;;;;17.40;2.60;;;5.30;99.90;;;;;;5032829;28;20036;-60
2021/11/27 12:13:07;;;;;;;11.80;2.35;;;5.30;99.90;;;;;;5023450;28;20037;-60
2021/11/27 12:15:35;;;;;;;9.60;2.80;;;5.30;99.90;;;;;;5015641;28;20522;-60
2021/11/27 12:18:15;;;;;;;16.08;2.85;;;5.40;99.90;;;;;;5016060;28;20021;-61
2021/11/27 12:20:49;;;;;;;14.63;2.92;;;5.50;99.90;;;;;;5018842;28;20038;-60
2021/11/27 12:26:10;;;;;;;9.80;2.05;;;5.50;99.90;;;;;;5012760;28;20456;-55
2021/11/27 12:28:36;;;;;;;10.25;2.30;;;5.50;99.90;;;;;;5015098;28;20034;-60
2021/11/27 12:31:07;;;;;;;11.75;2.38;;;5.50;99.90;;;;;;5016848;28;20033;-60
2021/11/27 12:33:52;;;;;;;7.13;1.85;;;5.40;99.90;;;;;;5013425;28;20038;-60
2021/11/27 12:36:27;;;;;;;11.32;1.90;;;5.40;99.90;;;;;;5027575;28;20105;-59
2021/11/27 12:39:09;;;;;;;12.30;2.60;;;5.40;99.90;;;;;;5017548;28;20034;-59
2021/11/27 12:41:38;;;;;;;16.38;3.08;;;5.40;99.90;;;;;;5018800;28;20033;-59
2021/11/27 12:44:12;;;;;;;18.67;3.38;;;5.30;99.90;;;;;;5012746;28;20042;-62
2021/11/27 12:46:37;;;;;;;16.50;3.50;;;5.30;99.90;;;;;;5011577;28;20145;-60
2021/11/27 12:49:03;;;;;;;12.48;3.17;;;5.30;99.90;;;;;;5024125;28;20180;-60
2021/11/27 12:51:30;;;;;;;13.00;3.00;;;5.30;99.90;;;;;;5012829;28;20034;-58
2021/11/27 12:54:02;;;;;;;19.52;3.42;;;5.30;99.90;;;;;;5013532;28;20042;-59
2021/11/27 12:56:47;;;;;;;10.65;2.90;;;5.30;99.90;;;;;;5017312;28;20030;-61
2021/11/27 12:59:24;;;;;;;11.70;3.10;;;5.20;99.90;;;;;;5011178;28;20508;-61
2021/11/27 13:01:54;;;;;;;10.68;2.38;;;5.10;99.90;;;;;;5030299;28;20042;-59